createdAt,value
2022-08-25T00:01:38.035Z,90.70
2022-08-25T00:04:08.434Z,90.60
2022-08-25T00:06:35.978Z,90.70
2022-08-25T00:09:03.366Z,90.60
2022-08-25T00:11:31.422Z,90.70
2022-08-25T00:14:02.765Z,90.50
2022-08-25T00:16:31.568Z,90.60
2022-08-25T00:19:05.414Z,90.70
2022-08-25T00:21:32.408Z,90.80
2022-08-25T00:23:59.770Z,90.80
2022-08-25T00:26:27.730Z,90.90
2022-08-25T00:28:55.217Z,90.90
2022-08-25T00:31:37.741Z,90.90
2022-08-25T00:34:11.786Z,90.80
2022-08-25T00:36:39.279Z,90.90
2022-08-25T00:39:07.603Z,91.10
2022-08-25T00:41:36.311Z,91.20
2022-08-25T00:44:05.788Z,91.30
2022-08-25T00:46:44.129Z,91.40
2022-08-25T00:49:32.684Z,91.70
2022-08-25T00:52:15.276Z,91.60
2022-08-25T00:54:53.753Z,91.50
2022-08-25T00:57:34.540Z,91.90
2022-08-25T01:00:07.462Z,91.70
2022-08-25T01:02:34.435Z,91.70
2022-08-25T01:05:01.374Z,91.60
2022-08-25T01:07:28.317Z,91.70
2022-08-25T01:09:55.730Z,91.60
2022-08-25T01:12:22.849Z,91.60
2022-08-25T01:14:50.149Z,91.50
2022-08-25T01:17:17.177Z,91.40
2022-08-25T01:19:44.216Z,91.50
2022-08-25T01:22:12.101Z,91.60
2022-08-25T01:24:45.493Z,91.70
2022-08-25T01:27:12.686Z,91.90
2022-08-25T01:29:39.784Z,92.00
2022-08-25T01:32:09.032Z,91.90
2022-08-25T01:34:37.606Z,91.90
2022-08-25T01:37:04.861Z,92.00
2022-08-25T01:39:33.920Z,92.10
2022-08-25T01:42:04.751Z,92.10
2022-08-25T01:44:32.443Z,92.10
2022-08-25T01:46:59.367Z,92.10
2022-08-25T01:49:26.281Z,92.20
2022-08-25T01:52:22.541Z,92.20
2022-08-25T01:54:49.478Z,92.50
2022-08-25T01:57:16.597Z,92.20
2022-08-25T01:59:44.881Z,92.30
2022-08-25T02:02:11.929Z,92.30
2022-08-25T02:04:39.532Z,92.30
2022-08-25T02:07:08.497Z,92.40
2022-08-25T02:09:36.284Z,92.90
2022-08-25T02:12:03.506Z,92.80
2022-08-25T02:14:30.457Z,93.00
2022-08-25T02:16:57.513Z,93.30
2022-08-25T02:19:24.680Z,93.70
2022-08-25T02:21:51.699Z,94.00
2022-08-25T02:24:18.844Z,94.50
2022-08-25T02:26:45.810Z,94.40
2022-08-25T02:29:13.049Z,94.60
2022-08-25T02:31:40.611Z,95.10
2022-08-25T02:34:07.770Z,94.80
2022-08-25T02:36:34.869Z,94.80
2022-08-25T02:39:02.029Z,94.60
2022-08-25T02:41:31.839Z,94.60
2022-08-25T02:44:02.338Z,94.50
2022-08-25T02:46:29.459Z,94.40
2022-08-25T02:48:56.509Z,94.50
2022-08-25T02:51:24.258Z,95.30
2022-08-25T02:53:51.141Z,95.10
2022-08-25T02:56:18.857Z,95.40
2022-08-25T02:58:46.232Z,95.70
2022-08-25T03:01:13.414Z,95.80
2022-08-25T03:03:40.646Z,96.30
2022-08-25T03:06:09.421Z,96.10
2022-08-25T03:08:37.055Z,96.30
2022-08-25T03:11:05.096Z,96.70
2022-08-25T03:13:32.334Z,96.60
2022-08-25T03:16:02.976Z,96.50
2022-08-25T03:18:30.265Z,96.90
2022-08-25T03:20:57.846Z,96.80
2022-08-25T03:23:24.907Z,97.00
2022-08-25T03:26:12.239Z,97.30
2022-08-25T03:28:39.171Z,97.40
2022-08-25T03:31:06.236Z,97.40
2022-08-25T03:33:33.125Z,97.50
2022-08-25T03:36:00.085Z,97.50
2022-08-25T03:38:27.442Z,97.80
2022-08-25T03:40:54.499Z,98.00
2022-08-25T03:43:21.432Z,98.10
2022-08-25T03:45:48.489Z,97.90
2022-08-25T03:48:16.138Z,98.00
2022-08-25T03:50:51.838Z,98.00
2022-08-25T03:53:19.840Z,98.20
2022-08-25T03:55:46.906Z,98.10
2022-08-25T03:58:14.153Z,98.20
2022-08-25T04:00:41.018Z,98.30
2022-08-25T04:03:07.991Z,98.40
2022-08-25T04:05:35.337Z,98.40
2022-08-25T04:08:02.478Z,98.40
2022-08-25T04:10:29.727Z,98.40
2022-08-25T04:12:57.331Z,98.60
2022-08-25T04:15:30.163Z,98.70
2022-08-25T04:18:03.750Z,98.70
2022-08-25T04:20:30.759Z,98.80
2022-08-25T04:23:00.638Z,98.80
2022-08-25T04:25:27.643Z,99.00
2022-08-25T04:27:55.299Z,99.10
2022-08-25T04:30:22.413Z,99.30
2022-08-25T04:32:49.674Z,99.20
2022-08-25T04:35:16.741Z,99.30
2022-08-25T04:37:43.634Z,99.30
2022-08-25T04:40:11.403Z,99.40
2022-08-25T04:42:39.346Z,99.60
2022-08-25T04:45:06.877Z,99.70
2022-08-25T04:47:39.483Z,99.90
2022-08-25T04:50:07.361Z,99.90
2022-08-25T04:52:34.295Z,99.90
2022-08-25T04:55:01.255Z,99.90
2022-08-25T04:57:28.332Z,99.90
2022-08-25T04:59:55.642Z,99.90
2022-08-25T05:02:25.202Z,99.90
2022-08-25T05:04:52.336Z,99.90
2022-08-25T05:07:19.292Z,99.90
2022-08-25T05:09:46.249Z,99.90
2022-08-25T05:12:13.425Z,99.90
2022-08-25T05:14:40.349Z,99.90
2022-08-25T05:17:07.882Z,99.90
2022-08-25T05:19:36.135Z,99.90
2022-08-25T05:22:03.109Z,99.90
2022-08-25T05:24:29.989Z,99.90
2022-08-25T05:26:56.990Z,99.90
2022-08-25T05:29:23.865Z,99.90
2022-08-25T05:31:51.118Z,99.90
2022-08-25T05:34:19.016Z,99.90
2022-08-25T05:36:46.390Z,99.90
2022-08-25T05:39:13.295Z,99.90
2022-08-25T05:41:40.224Z,99.90
2022-08-25T05:44:07.198Z,99.90
2022-08-25T05:46:34.098Z,99.90
2022-08-25T05:49:01.086Z,99.90
2022-08-25T05:51:28.025Z,99.90
2022-08-25T05:53:55.040Z,99.90
2022-08-25T05:56:21.964Z,99.90
2022-08-25T05:58:48.880Z,99.90
2022-08-25T06:01:43.397Z,99.90
2022-08-25T06:04:12.663Z,99.90
2022-08-25T06:06:39.746Z,99.90
2022-08-25T06:09:08.762Z,99.90
2022-08-25T06:11:37.350Z,99.90
2022-08-25T06:14:04.778Z,99.90
2022-08-25T06:16:31.903Z,99.90
2022-08-25T06:18:59.093Z,99.90
2022-08-25T06:21:26.002Z,99.90
2022-08-25T06:23:52.918Z,99.90
2022-08-25T06:26:21.302Z,99.90
2022-08-25T06:28:50.082Z,99.90
2022-08-25T06:31:17.272Z,99.90
2022-08-25T06:33:44.328Z,99.90
2022-08-25T06:36:11.227Z,99.90
2022-08-25T06:38:38.170Z,99.90
2022-08-25T06:41:05.839Z,99.90
2022-08-25T06:43:33.284Z,99.90
2022-08-25T06:46:15.364Z,99.90
2022-08-25T06:48:42.325Z,99.90
2022-08-25T06:51:14.121Z,99.90
2022-08-25T06:53:41.394Z,99.90
2022-08-25T06:56:08.551Z,99.90
2022-08-25T06:58:35.799Z,99.90
2022-08-25T07:01:20.894Z,99.90
2022-08-25T07:03:48.420Z,99.90
2022-08-25T07:06:18.539Z,99.90
2022-08-25T07:08:46.588Z,99.90
2022-08-25T07:11:16.407Z,99.90
2022-08-25T07:13:44.613Z,99.90
2022-08-25T07:16:11.667Z,99.90
2022-08-25T07:18:38.678Z,99.90
2022-08-25T07:21:05.866Z,99.90
2022-08-25T07:23:36.555Z,99.90
2022-08-25T07:29:01.995Z,99.90
2022-08-25T07:31:30.275Z,99.90
2022-08-25T07:34:16.670Z,99.90
2022-08-25T07:36:44.293Z,99.90
2022-08-25T07:39:11.382Z,99.90
2022-08-25T07:41:39.695Z,99.90
2022-08-25T07:44:06.918Z,99.90
2022-08-25T07:46:34.192Z,99.90
2022-08-25T07:49:01.858Z,99.90
2022-08-25T07:51:28.907Z,99.90
2022-08-25T07:53:55.899Z,99.90
2022-08-25T07:56:23.797Z,99.90
2022-08-25T07:58:50.712Z,99.90
2022-08-25T08:01:18.997Z,99.90
2022-08-25T08:03:51.232Z,99.90
2022-08-25T08:06:20.535Z,99.90
2022-08-25T08:08:49.276Z,99.90
2022-08-25T08:11:20.621Z,99.90
2022-08-25T08:13:47.910Z,99.90
2022-08-25T08:16:18.646Z,99.90
2022-08-25T08:18:46.004Z,99.90
2022-08-25T08:21:19.295Z,99.90
2022-08-25T08:23:48.504Z,99.90
2022-08-25T08:26:16.842Z,99.90
2022-08-25T08:28:43.978Z,99.90
2022-08-25T08:31:11.036Z,99.90
2022-08-25T08:33:40.872Z,99.90
2022-08-25T08:36:09.799Z,99.90
2022-08-25T08:38:37.123Z,99.90
2022-08-25T08:42:11.681Z,99.90
2022-08-25T08:44:52.750Z,99.90
2022-08-25T08:47:38.514Z,99.90
2022-08-25T08:50:22.123Z,99.90
2022-08-25T08:53:02.934Z,99.90
2022-08-25T08:55:35.976Z,99.90
2022-08-25T08:58:07.585Z,99.90
2022-08-25T09:00:51.853Z,99.90
2022-08-25T09:03:29.755Z,99.90
2022-08-25T09:05:58.685Z,99.90
2022-08-25T09:08:26.602Z,99.90
2022-08-25T09:11:10.935Z,99.90
2022-08-25T09:13:55.319Z,99.90
2022-08-25T09:16:55.629Z,99.90
2022-08-25T09:19:32.088Z,99.90
2022-08-25T09:22:34.011Z,99.90
2022-08-25T09:25:22.101Z,99.90
2022-08-25T09:28:12.546Z,99.90
2022-08-25T09:31:09.633Z,99.90
2022-08-25T09:33:36.597Z,99.90
2022-08-25T09:36:05.920Z,99.90
2022-08-25T09:38:33.434Z,99.90
2022-08-25T09:41:01.474Z,99.90
2022-08-25T09:43:34.256Z,99.90
2022-08-25T09:46:18.092Z,99.90
2022-08-25T09:48:56.937Z,99.90
2022-08-25T09:51:38.333Z,99.90
2022-08-25T09:54:13.120Z,99.90
2022-08-25T09:57:01.854Z,99.90
2022-08-25T09:59:34.870Z,99.90
2022-08-25T10:02:05.596Z,99.90
2022-08-25T10:04:37.151Z,99.90
2022-08-25T10:07:28.409Z,99.90
2022-08-25T10:10:03.226Z,99.90
2022-08-25T10:12:36.797Z,99.90
2022-08-25T10:15:29.449Z,99.90
2022-08-25T10:18:25.712Z,99.90
2022-08-25T10:21:12.014Z,99.90
2022-08-25T10:23:51.573Z,99.90
2022-08-25T10:26:36.834Z,99.90
2022-08-25T10:29:35.761Z,99.90
2022-08-25T10:32:12.454Z,99.90
2022-08-25T10:34:44.419Z,99.90
2022-08-25T10:37:24.142Z,99.90
2022-08-25T10:40:21.824Z,99.90
2022-08-25T10:43:09.158Z,99.90
2022-08-25T10:45:45.873Z,99.90
2022-08-25T10:48:34.883Z,99.90
2022-08-25T10:51:43.829Z,99.90
2022-08-25T10:54:22.534Z,99.90
2022-08-25T10:57:13.167Z,99.90
2022-08-25T10:59:59.027Z,99.90
2022-08-25T11:03:04.079Z,99.90
2022-08-25T11:05:42.604Z,99.90
2022-08-25T11:08:28.448Z,99.90
2022-08-25T11:11:09.268Z,99.90
2022-08-25T11:13:50.831Z,99.90
2022-08-25T11:16:34.002Z,99.90
2022-08-25T11:19:19.845Z,99.90
2022-08-25T11:22:05.972Z,99.90
2022-08-25T11:24:51.520Z,99.90
2022-08-25T11:27:24.629Z,99.90
2022-08-25T11:30:12.577Z,99.90
2022-08-25T11:32:39.795Z,99.90
2022-08-25T11:35:09.223Z,99.90
2022-08-25T11:37:45.679Z,99.90
2022-08-25T11:40:28.867Z,99.90
2022-08-25T11:42:59.799Z,99.90
2022-08-25T11:45:40.830Z,99.90
2022-08-25T11:48:42.408Z,99.90
2022-08-25T11:51:11.208Z,99.90
2022-08-25T11:53:42.541Z,99.90
2022-08-25T11:56:32.562Z,99.90
2022-08-25T11:59:02.419Z,99.90
2022-08-25T12:01:43.181Z,99.90
2022-08-25T12:04:44.707Z,99.90
2022-08-25T12:07:17.143Z,99.90
2022-08-25T12:09:51.346Z,99.90
2022-08-25T12:12:31.327Z,99.90
2022-08-25T12:15:14.659Z,99.90
2022-08-25T12:17:41.683Z,99.90
2022-08-25T12:20:08.708Z,99.90
2022-08-25T12:22:35.576Z,99.90
2022-08-25T12:25:24.507Z,99.90
2022-08-25T12:28:17.538Z,99.90
2022-08-25T12:30:52.993Z,99.90
2022-08-25T12:33:34.971Z,99.90
2022-08-25T12:36:03.879Z,99.90
2022-08-25T12:38:39.847Z,99.90
2022-08-25T12:41:14.901Z,99.90
2022-08-25T12:43:44.110Z,99.90
2022-08-25T12:46:20.133Z,99.90
2022-08-25T12:48:57.827Z,99.90
2022-08-25T12:51:48.834Z,99.70
2022-08-25T12:54:36.427Z,99.70
2022-08-25T12:57:41.953Z,98.20
2022-08-25T13:00:21.299Z,99.10
2022-08-25T13:03:02.419Z,99.30
2022-08-25T13:05:48.082Z,99.20
2022-08-25T13:08:37.053Z,98.30
2022-08-25T13:11:04.786Z,97.90
2022-08-25T13:13:31.834Z,98.90
2022-08-25T13:16:04.829Z,98.80
2022-08-25T13:18:33.580Z,98.10
2022-08-25T13:21:29.116Z,98.80
2022-08-25T13:24:04.681Z,97.20
2022-08-25T13:26:34.445Z,98.70
2022-08-25T13:29:11.525Z,98.80
2022-08-25T13:31:49.962Z,97.90
2022-08-25T13:34:24.157Z,98.40
2022-08-25T13:37:32.401Z,96.60
2022-08-25T13:40:28.949Z,97.30
2022-08-25T13:43:01.256Z,97.30
2022-08-25T13:45:31.668Z,96.40
2022-08-25T13:47:58.990Z,97.00
2022-08-25T13:50:26.374Z,96.90
2022-08-25T13:52:55.697Z,96.70
2022-08-25T13:55:51.217Z,96.80
2022-08-25T13:58:44.860Z,95.10
2022-08-25T14:01:47.721Z,94.40
2022-08-25T14:04:32.927Z,96.10
2022-08-25T14:07:19.460Z,94.60
2022-08-25T14:09:52.348Z,93.60
2022-08-25T14:12:41.567Z,95.00
2022-08-25T14:15:17.721Z,94.20
2022-08-25T14:18:09.549Z,94.30
2022-08-25T14:20:45.450Z,93.70
2022-08-25T14:23:16.192Z,94.50
2022-08-25T14:25:46.435Z,94.60
2022-08-25T14:51:22.872Z,93.50
2022-08-25T14:53:49.808Z,93.30
2022-08-25T14:56:17.778Z,93.20
2022-08-25T14:58:51.014Z,91.60
2022-08-25T15:01:29.474Z,92.50
2022-08-25T15:04:11.697Z,92.90
2022-08-25T15:06:38.971Z,92.00
2022-08-25T15:09:08.035Z,92.60
2022-08-25T15:11:35.346Z,92.80
2022-08-25T15:14:02.384Z,92.40
2022-08-25T15:16:37.911Z,91.90
2022-08-25T15:19:14.493Z,91.60
2022-08-25T15:21:43.609Z,91.10
2022-08-25T15:24:10.727Z,92.60
2022-08-25T15:29:23.188Z,92.60
2022-08-25T15:31:50.380Z,93.10
2022-08-25T15:34:17.549Z,93.80
2022-08-25T15:36:45.539Z,94.00
2022-08-25T15:39:15.011Z,93.90
2022-08-25T15:42:00.420Z,94.30
2022-08-25T15:44:29.639Z,94.60
2022-08-25T15:46:58.636Z,94.60
2022-08-25T15:49:26.315Z,95.10
2022-08-25T15:51:56.784Z,94.70
2022-08-25T15:54:26.956Z,94.90
2022-08-25T15:56:54.999Z,95.20
2022-08-25T15:59:21.937Z,95.00
2022-08-25T16:01:49.226Z,95.10
2022-08-25T16:04:16.437Z,95.30
2022-08-25T16:06:44.785Z,95.30
2022-08-25T16:09:12.199Z,95.20
2022-08-25T16:11:39.237Z,95.30
2022-08-25T16:14:06.319Z,95.20
2022-08-25T16:16:33.596Z,94.90
2022-08-25T16:19:01.536Z,94.90
2022-08-25T16:21:31.113Z,95.20
2022-08-25T16:24:02.601Z,95.30
2022-08-25T16:26:32.506Z,95.10
2022-08-25T16:28:59.483Z,95.30
2022-08-25T16:31:26.552Z,95.00
2022-08-25T16:33:56.169Z,95.00
2022-08-25T16:36:27.194Z,95.20
2022-08-25T16:38:56.452Z,95.20
2022-08-25T16:41:34.144Z,95.20
2022-08-25T16:44:04.067Z,95.50
2022-08-25T16:46:31.173Z,95.50
2022-08-25T16:49:02.614Z,95.40
2022-08-25T16:51:32.400Z,95.70
2022-08-25T16:54:22.377Z,95.60
2022-08-25T16:56:54.812Z,96.00
2022-08-25T16:59:22.274Z,95.80
2022-08-25T17:01:50.960Z,95.70
2022-08-25T17:04:17.876Z,95.60
2022-08-25T17:06:49.402Z,95.80
2022-08-25T17:09:22.820Z,95.60
2022-08-25T17:11:54.091Z,95.60
2022-08-25T17:14:21.596Z,95.70
2022-08-25T17:16:48.704Z,95.60
2022-08-25T17:19:17.768Z,95.70
2022-08-25T17:21:46.213Z,95.60
2022-08-25T17:24:13.930Z,95.60
2022-08-25T17:26:41.733Z,95.60
2022-08-25T17:29:09.540Z,95.60
2022-08-25T17:31:40.100Z,95.70
2022-08-25T17:34:12.109Z,95.90
2022-08-25T17:36:43.570Z,95.60
2022-08-25T17:39:11.692Z,95.40
2022-08-25T17:41:38.719Z,95.30
2022-08-25T17:44:10.279Z,95.40
2022-08-25T17:46:38.456Z,95.50
2022-08-25T17:49:08.877Z,95.50
2022-08-25T17:51:35.809Z,95.50
2022-08-25T17:54:02.745Z,95.60
2022-08-25T17:56:30.003Z,95.60
2022-08-25T17:58:57.205Z,95.60
2022-08-25T18:01:29.025Z,95.70
2022-08-25T18:03:56.601Z,95.80
2022-08-25T18:06:23.585Z,95.80
2022-08-25T18:08:53.674Z,95.90
2022-08-25T18:11:26.464Z,95.90
2022-08-25T18:13:54.055Z,95.70
2022-08-25T18:16:21.385Z,96.00
2022-08-25T18:18:48.740Z,95.90
2022-08-25T18:21:16.507Z,96.00
2022-08-25T18:23:43.480Z,96.10
2022-08-25T18:26:13.053Z,96.20
2022-08-25T18:28:40.280Z,96.00
2022-08-25T18:31:12.074Z,95.90
2022-08-25T18:33:42.026Z,95.80
2022-08-25T18:36:09.556Z,95.80
2022-08-25T18:38:57.787Z,95.90
2022-08-25T18:41:25.773Z,96.00
2022-08-25T18:43:53.246Z,96.20
2022-08-25T18:46:22.797Z,96.00
2022-08-25T18:48:52.978Z,96.10
2022-08-25T18:51:22.853Z,96.00
2022-08-25T18:53:51.195Z,95.90
2022-08-25T18:56:22.449Z,96.00
2022-08-25T18:58:49.440Z,96.00
2022-08-25T19:01:17.036Z,96.10
2022-08-25T19:03:45.408Z,96.30
2022-08-25T19:06:12.280Z,96.30
2022-08-25T19:08:41.940Z,96.40
2022-08-25T19:11:09.890Z,96.20
2022-08-25T19:13:37.811Z,96.30
2022-08-25T19:16:32.112Z,96.30
2022-08-25T19:19:01.065Z,96.30
2022-08-25T19:21:31.248Z,96.20
2022-08-25T19:23:58.231Z,96.30
2022-08-25T19:26:25.646Z,96.30
2022-08-25T19:28:52.727Z,96.10
2022-08-25T19:31:24.056Z,96.20
2022-08-25T19:33:52.503Z,96.30
2022-08-25T19:36:21.376Z,96.20
2022-08-25T19:38:51.769Z,96.10
2022-08-25T19:41:19.470Z,96.20
2022-08-25T19:43:55.735Z,96.30
2022-08-25T19:46:33.336Z,96.70
2022-08-25T19:49:08.800Z,96.60
2022-08-25T19:51:44.900Z,96.40
2022-08-25T19:54:13.759Z,96.30
2022-08-25T19:56:43.512Z,96.20
2022-08-25T19:59:34.177Z,96.30
2022-08-25T20:02:08.731Z,96.20
2022-08-25T20:04:37.775Z,96.10
2022-08-25T20:07:04.715Z,96.20
2022-08-25T20:09:39.099Z,96.20
2022-08-25T20:12:08.664Z,96.30
2022-08-25T20:14:36.508Z,96.30
2022-08-25T20:17:04.024Z,96.40
2022-08-25T20:19:41.669Z,96.20
2022-08-25T20:22:11.229Z,96.20
2022-08-25T20:24:56.240Z,96.20
2022-08-25T20:27:27.281Z,96.20
2022-08-25T20:29:54.357Z,96.50
2022-08-25T20:32:21.311Z,96.40
2022-08-25T20:34:48.596Z,96.50
2022-08-25T20:37:16.852Z,96.50
2022-08-25T20:39:46.742Z,96.50
2022-08-25T20:42:13.981Z,96.50
2022-08-25T20:44:42.237Z,96.50
2022-08-25T20:47:10.394Z,96.60
2022-08-25T20:49:39.202Z,96.50
2022-08-25T20:52:06.679Z,96.50
2022-08-25T20:54:33.709Z,96.50
2022-08-25T20:57:01.010Z,96.50
2022-08-25T20:59:29.486Z,96.50
2022-08-25T21:01:56.690Z,96.50
2022-08-25T21:04:25.374Z,96.50
2022-08-25T21:06:52.909Z,96.50
2022-08-25T21:09:21.435Z,96.60
2022-08-25T21:11:48.355Z,96.70
2022-08-25T21:14:16.748Z,96.70
2022-08-25T21:16:47.110Z,96.70
2022-08-25T21:19:16.048Z,96.90
2022-08-25T21:21:43.016Z,96.60
2022-08-25T21:24:10.312Z,96.70
2022-08-25T21:26:37.715Z,96.90
2022-08-25T21:29:17.109Z,97.00
2022-08-25T21:31:44.212Z,97.30
2022-08-25T21:34:11.885Z,97.10
2022-08-25T21:36:38.836Z,97.20
2022-08-25T21:39:05.963Z,97.40
2022-08-25T21:41:33.781Z,97.30
2022-08-25T21:44:01.422Z,97.20
2022-08-25T21:46:30.468Z,97.30
2022-08-25T21:48:58.420Z,97.30
2022-08-25T21:51:28.747Z,97.40
2022-08-25T21:54:10.772Z,97.50
2022-08-25T21:56:59.752Z,97.50
2022-08-25T21:59:32.475Z,97.60
2022-08-25T22:02:01.192Z,97.60
2022-08-25T22:04:28.285Z,97.70
2022-08-25T22:06:55.795Z,97.40
2022-08-25T22:09:25.071Z,97.60
2022-08-25T22:11:54.590Z,97.60
2022-08-25T22:14:21.959Z,97.60
2022-08-25T22:16:48.804Z,97.60
2022-08-25T22:19:15.748Z,97.50
2022-08-25T22:21:43.360Z,97.60
2022-08-25T22:24:10.386Z,97.60
2022-08-25T22:26:37.616Z,97.60
2022-08-25T22:29:05.254Z,97.70
2022-08-25T22:31:33.619Z,97.80
2022-08-25T22:34:00.938Z,97.90
2022-08-25T22:36:34.643Z,97.70
2022-08-25T22:39:02.291Z,97.80
2022-08-25T22:41:29.928Z,97.80
2022-08-25T22:43:57.728Z,97.90
2022-08-25T22:46:25.715Z,98.10
2022-08-25T22:48:55.465Z,98.10
2022-08-25T22:51:27.667Z,98.00
2022-08-25T22:53:54.702Z,98.00
2022-08-25T22:56:29.776Z,98.70
2022-08-25T22:59:01.221Z,98.20
2022-08-25T23:01:28.199Z,98.20
2022-08-25T23:03:55.050Z,98.20
2022-08-25T23:06:24.693Z,98.10
2022-08-25T23:08:53.701Z,98.20
2022-08-25T23:11:21.163Z,98.50
2022-08-25T23:13:48.111Z,98.40
2022-08-25T23:16:15.637Z,98.40
2022-08-25T23:18:44.656Z,98.50
2022-08-25T23:21:38.117Z,98.50
2022-08-25T23:24:10.765Z,98.50
2022-08-25T23:26:42.553Z,98.50
2022-08-25T23:29:18.401Z,98.70
2022-08-25T23:31:46.386Z,98.80
2022-08-25T23:34:13.498Z,98.90
2022-08-25T23:36:40.508Z,98.90
2022-08-25T23:39:07.645Z,99.10
2022-08-25T23:41:36.817Z,98.90
2022-08-25T23:44:05.395Z,98.90
2022-08-25T23:46:33.118Z,98.80
2022-08-25T23:49:00.212Z,98.90
2022-08-25T23:51:28.666Z,98.90
2022-08-25T23:53:55.852Z,98.90
2022-08-25T23:56:25.989Z,98.90
2022-08-25T23:58:53.115Z,99.00
